sensor_id;sensor_type;location;lat;lon;timestamp;temperature;humidity
51175;DHT22;37240;50.104;20.010;2023-06-10T00:02:42;20.20;99.90
51175;DHT22;37240;50.104;20.010;2023-06-10T00:07:43;20.20;99.90
51175;DHT22;37240;50.104;20.010;2023-06-10T00:12:44;20.00;99.90
51175;DHT22;37240;50.104;20.010;2023-06-10T00:17:44;20.00;99.90
51175;DHT22;37240;50.104;20.010;2023-06-10T00:22:45;20.00;99.90
51175;DHT22;37240;50.104;20.010;2023-06-10T00:27:45;19.90;99.90
51175;DHT22;37240;50.104;20.010;2023-06-10T00:32:46;19.90;99.90
51175;DHT22;37240;50.104;20.010;2023-06-10T00:37:46;19.90;99.90
51175;DHT22;37240;50.104;20.010;2023-06-10T00:42:47;19.90;99.90
51175;DHT22;37240;50.104;20.010;2023-06-10T00:47:47;19.80;99.90
51175;DHT22;37240;50.104;20.010;2023-06-10T00:52:48;19.80;99.90
51175;DHT22;37240;50.104;20.010;2023-06-10T00:57:49;19.70;99.90
51175;DHT22;37240;50.104;20.010;2023-06-10T01:02:50;19.70;99.90
51175;DHT22;37240;50.104;20.010;2023-06-10T01:08:09;19.70;99.90
51175;DHT22;37240;50.104;20.010;2023-06-10T01:13:11;19.70;99.90
51175;DHT22;37240;50.104;20.010;2023-06-10T01:18:11;19.60;99.90
51175;DHT22;37240;50.104;20.010;2023-06-10T01:23:12;19.60;99.90
51175;DHT22;37240;50.104;20.010;2023-06-10T01:28:25;19.60;99.90
51175;DHT22;37240;50.104;20.010;2023-06-10T01:33:31;19.70;99.90
51175;DHT22;37240;50.104;20.010;2023-06-10T01:38:38;19.70;99.90
51175;DHT22;37240;50.104;20.010;2023-06-10T01:43:40;19.80;99.90
51175;DHT22;37240;50.104;20.010;2023-06-10T01:48:42;19.80;99.90
51175;DHT22;37240;50.104;20.010;2023-06-10T01:53:43;19.80;99.90
51175;DHT22;37240;50.104;20.010;2023-06-10T01:58:44;19.80;99.90
51175;DHT22;37240;50.104;20.010;2023-06-10T02:03:44;19.80;99.90
51175;DHT22;37240;50.104;20.010;2023-06-10T02:08:45;19.70;99.90
51175;DHT22;37240;50.104;20.010;2023-06-10T02:13:45;19.70;99.90
51175;DHT22;37240;50.104;20.010;2023-06-10T02:18:46;19.60;99.90
51175;DHT22;37240;50.104;20.010;2023-06-10T02:23:47;19.40;99.90
51175;DHT22;37240;50.104;20.010;2023-06-10T02:28:47;19.30;99.90
51175;DHT22;37240;50.104;20.010;2023-06-10T02:33:48;19.40;99.90
51175;DHT22;37240;50.104;20.010;2023-06-10T02:38:48;19.30;99.90
51175;DHT22;37240;50.104;20.010;2023-06-10T02:43:49;19.40;99.90
51175;DHT22;37240;50.104;20.010;2023-06-10T02:48:49;19.40;99.90
51175;DHT22;37240;50.104;20.010;2023-06-10T02:53:50;19.30;99.90
51175;DHT22;37240;50.104;20.010;2023-06-10T02:58:50;19.40;99.90
51175;DHT22;37240;50.104;20.010;2023-06-10T03:03:51;19.40;99.90
51175;DHT22;37240;50.104;20.010;2023-06-10T03:08:51;19.30;99.90
51175;DHT22;37240;50.104;20.010;2023-06-10T03:13:52;19.20;99.90
51175;DHT22;37240;50.104;20.010;2023-06-10T03:18:52;19.30;99.90
51175;DHT22;37240;50.104;20.010;2023-06-10T03:23:53;19.30;99.90
51175;DHT22;37240;50.104;20.010;2023-06-10T03:28:53;19.40;99.90
51175;DHT22;37240;50.104;20.010;2023-06-10T03:33:54;19.40;99.90
51175;DHT22;37240;50.104;20.010;2023-06-10T03:38:55;19.40;99.90
51175;DHT22;37240;50.104;20.010;2023-06-10T03:43:55;19.50;99.90
51175;DHT22;37240;50.104;20.010;2023-06-10T03:48:56;19.40;99.90
51175;DHT22;37240;50.104;20.010;2023-06-10T03:53:56;19.50;99.90
51175;DHT22;37240;50.104;20.010;2023-06-10T03:58:57;19.40;99.90
51175;DHT22;37240;50.104;20.010;2023-06-10T04:03:57;19.40;99.90
51175;DHT22;37240;50.104;20.010;2023-06-10T04:08:58;19.50;99.90
51175;DHT22;37240;50.104;20.010;2023-06-10T04:13:58;19.60;99.90
51175;DHT22;37240;50.104;20.010;2023-06-10T04:19:00;19.60;99.90
51175;DHT22;37240;50.104;20.010;2023-06-10T04:24:01;19.70;99.90
51175;DHT22;37240;50.104;20.010;2023-06-10T04:29:02;19.70;99.90
51175;DHT22;37240;50.104;20.010;2023-06-10T04:34:02;19.70;99.90
51175;DHT22;37240;50.104;20.010;2023-06-10T04:39:03;19.70;99.90
51175;DHT22;37240;50.104;20.010;2023-06-10T04:44:03;19.70;99.90
51175;DHT22;37240;50.104;20.010;2023-06-10T04:49:04;19.70;99.90
51175;DHT22;37240;50.104;20.010;2023-06-10T04:54:05;19.70;99.90
51175;DHT22;37240;50.104;20.010;2023-06-10T04:59:05;19.90;99.90
51175;DHT22;37240;50.104;20.010;2023-06-10T05:04:06;20.00;99.90
51175;DHT22;37240;50.104;20.010;2023-06-10T05:09:06;20.10;99.90
51175;DHT22;37240;50.104;20.010;2023-06-10T05:14:07;20.20;99.90
51175;DHT22;37240;50.104;20.010;2023-06-10T05:19:07;20.40;99.90
51175;DHT22;37240;50.104;20.010;2023-06-10T05:24:08;20.70;99.90
51175;DHT22;37240;50.104;20.010;2023-06-10T05:29:08;20.90;99.90
51175;DHT22;37240;50.104;20.010;2023-06-10T05:34:09;21.40;99.90
51175;DHT22;37240;50.104;20.010;2023-06-10T05:39:10;22.10;99.90
51175;DHT22;37240;50.104;20.010;2023-06-10T05:44:10;23.00;99.90
51175;DHT22;37240;50.104;20.010;2023-06-10T05:49:11;24.20;99.90
51175;DHT22;37240;50.104;20.010;2023-06-10T05:54:11;25.70;96.50
51175;DHT22;37240;50.104;20.010;2023-06-10T05:59:12;25.20;95.70
51175;DHT22;37240;50.104;20.010;2023-06-10T06:04:12;24.10;97.50
51175;DHT22;37240;50.104;20.010;2023-06-10T06:09:13;23.80;98.40
51175;DHT22;37240;50.104;20.010;2023-06-10T06:14:13;23.60;99.10
51175;DHT22;37240;50.104;20.010;2023-06-10T06:19:14;23.70;98.60
51175;DHT22;37240;50.104;20.010;2023-06-10T06:24:16;23.80;98.40
51175;DHT22;37240;50.104;20.010;2023-06-10T06:29:16;23.90;98.10
51175;DHT22;37240;50.104;20.010;2023-06-10T06:34:17;23.70;98.20
51175;DHT22;37240;50.104;20.010;2023-06-10T06:39:17;23.70;98.80
51175;DHT22;37240;50.104;20.010;2023-06-10T06:44:18;23.80;98.50
51175;DHT22;37240;50.104;20.010;2023-06-10T06:49:18;23.60;98.60
51175;DHT22;37240;50.104;20.010;2023-06-10T06:54:19;23.20;99.60
51175;DHT22;37240;50.104;20.010;2023-06-10T06:59:20;22.80;99.90
51175;DHT22;37240;50.104;20.010;2023-06-10T07:04:20;22.70;99.90
51175;DHT22;37240;50.104;20.010;2023-06-10T07:09:21;22.50;99.90
51175;DHT22;37240;50.104;20.010;2023-06-10T07:14:21;22.30;99.90
51175;DHT22;37240;50.104;20.010;2023-06-10T07:19:22;22.20;99.90
51175;DHT22;37240;50.104;20.010;2023-06-10T07:24:22;22.20;99.90
51175;DHT22;37240;50.104;20.010;2023-06-10T07:29:23;22.30;99.90
51175;DHT22;37240;50.104;20.010;2023-06-10T07:34:23;22.40;99.90
51175;DHT22;37240;50.104;20.010;2023-06-10T07:39:24;22.30;99.90
51175;DHT22;37240;50.104;20.010;2023-06-10T07:44:24;22.40;99.90
51175;DHT22;37240;50.104;20.010;2023-06-10T07:49:25;22.50;99.90
51175;DHT22;37240;50.104;20.010;2023-06-10T07:54:25;22.50;99.90
51175;DHT22;37240;50.104;20.010;2023-06-10T07:59:26;22.70;99.90
51175;DHT22;37240;50.104;20.010;2023-06-10T08:04:26;22.70;99.90
51175;DHT22;37240;50.104;20.010;2023-06-10T08:09:27;22.70;99.90
51175;DHT22;37240;50.104;20.010;2023-06-10T08:14:27;22.70;99.90
51175;DHT22;37240;50.104;20.010;2023-06-10T08:19:28;23.00;99.90
51175;DHT22;37240;50.104;20.010;2023-06-10T08:24:29;23.60;99.90
51175;DHT22;37240;50.104;20.010;2023-06-10T08:29:29;24.00;99.20
51175;DHT22;37240;50.104;20.010;2023-06-10T08:34:32;24.10;99.00
51175;DHT22;37240;50.104;20.010;2023-06-10T08:39:33;24.50;98.40
51175;DHT22;37240;50.104;20.010;2023-06-10T08:44:35;24.80;97.50
51175;DHT22;37240;50.104;20.010;2023-06-10T08:49:38;24.90;97.00
51175;DHT22;37240;50.104;20.010;2023-06-10T08:54:45;25.00;96.30
51175;DHT22;37240;50.104;20.010;2023-06-10T08:59:49;25.30;96.00
51175;DHT22;37240;50.104;20.010;2023-06-10T09:04:50;25.30;95.40
51175;DHT22;37240;50.104;20.010;2023-06-10T09:09:51;25.10;95.70
51175;DHT22;37240;50.104;20.010;2023-06-10T09:14:52;24.80;96.20
51175;DHT22;37240;50.104;20.010;2023-06-10T09:19:53;24.90;97.00
51175;DHT22;37240;50.104;20.010;2023-06-10T09:25:13;25.00;95.60
51175;DHT22;37240;50.104;20.010;2023-06-10T09:30:34;24.90;95.90
51175;DHT22;37240;50.104;20.010;2023-06-10T09:35:35;24.90;95.30
51175;DHT22;37240;50.104;20.010;2023-06-10T09:40:48;24.50;96.40
51175;DHT22;37240;50.104;20.010;2023-06-10T09:45:50;24.40;96.70
51175;DHT22;37240;50.104;20.010;2023-06-10T09:50:50;24.20;96.90
51175;DHT22;37240;50.104;20.010;2023-06-10T09:55:52;24.40;96.60
51175;DHT22;37240;50.104;20.010;2023-06-10T10:00:53;24.50;96.60
51175;DHT22;37240;50.104;20.010;2023-06-10T10:06:00;24.40;96.70
51175;DHT22;37240;50.104;20.010;2023-06-10T10:11:01;24.20;98.00
51175;DHT22;37240;50.104;20.010;2023-06-10T10:16:10;24.20;98.30
51175;DHT22;37240;50.104;20.010;2023-06-10T10:21:13;23.80;98.80
51175;DHT22;37240;50.104;20.010;2023-06-10T10:26:14;23.90;99.40
51175;DHT22;37240;50.104;20.010;2023-06-10T10:31:18;23.90;98.80
51175;DHT22;37240;50.104;20.010;2023-06-10T10:36:19;24.00;99.10
51175;DHT22;37240;50.104;20.010;2023-06-10T10:41:20;24.10;98.80
51175;DHT22;37240;50.104;20.010;2023-06-10T10:46:21;23.90;98.90
51175;DHT22;37240;50.104;20.010;2023-06-10T10:51:23;23.90;99.20
51175;DHT22;37240;50.104;20.010;2023-06-10T10:56:27;23.80;99.40
51175;DHT22;37240;50.104;20.010;2023-06-10T11:01:40;23.90;98.70
51175;DHT22;37240;50.104;20.010;2023-06-10T11:06:52;23.80;98.60
51175;DHT22;37240;50.104;20.010;2023-06-10T11:11:53;23.80;97.80
51175;DHT22;37240;50.104;20.010;2023-06-10T11:16:57;23.90;97.70
51175;DHT22;37240;50.104;20.010;2023-06-10T11:21:59;23.90;97.50
51175;DHT22;37240;50.104;20.010;2023-06-10T11:27:37;23.80;98.60
51175;DHT22;37240;50.104;20.010;2023-06-10T11:32:38;23.90;99.20
51175;DHT22;37240;50.104;20.010;2023-06-10T11:37:39;23.70;99.80
51175;DHT22;37240;50.104;20.010;2023-06-10T11:42:41;23.70;99.90
51175;DHT22;37240;50.104;20.010;2023-06-10T11:47:58;23.90;99.90
51175;DHT22;37240;50.104;20.010;2023-06-10T11:52:59;23.70;99.80
51175;DHT22;37240;50.104;20.010;2023-06-10T11:58:00;23.70;98.70
51175;DHT22;37240;50.104;20.010;2023-06-10T12:03:01;23.70;99.10
51175;DHT22;37240;50.104;20.010;2023-06-10T12:08:11;23.50;97.40
51175;DHT22;37240;50.104;20.010;2023-06-10T12:13:12;23.30;97.90
51175;DHT22;37240;50.104;20.010;2023-06-10T12:18:21;23.30;97.80
51175;DHT22;37240;50.104;20.010;2023-06-10T12:23:21;23.20;97.60
51175;DHT22;37240;50.104;20.010;2023-06-10T12:28:26;23.40;97.70
51175;DHT22;37240;50.104;20.010;2023-06-10T12:33:27;23.40;97.40
51175;DHT22;37240;50.104;20.010;2023-06-10T12:38:27;23.30;96.50
51175;DHT22;37240;50.104;20.010;2023-06-10T12:43:28;23.30;96.50
51175;DHT22;37240;50.104;20.010;2023-06-10T12:48:30;23.30;96.60
51175;DHT22;37240;50.104;20.010;2023-06-10T12:53:31;23.30;96.20
51175;DHT22;37240;50.104;20.010;2023-06-10T12:58:32;23.50;96.30
51175;DHT22;37240;50.104;20.010;2023-06-10T13:03:32;23.30;95.90
51175;DHT22;37240;50.104;20.010;2023-06-10T13:08:33;23.40;96.50
51175;DHT22;37240;50.104;20.010;2023-06-10T13:13:33;23.30;96.70
51175;DHT22;37240;50.104;20.010;2023-06-10T13:18:36;23.20;97.00
51175;DHT22;37240;50.104;20.010;2023-06-10T13:23:37;23.10;97.90
51175;DHT22;37240;50.104;20.010;2023-06-10T13:28:37;23.10;97.60
51175;DHT22;37240;50.104;20.010;2023-06-10T13:33:38;23.20;97.60
51175;DHT22;37240;50.104;20.010;2023-06-10T13:38:38;23.10;97.70
51175;DHT22;37240;50.104;20.010;2023-06-10T13:43:39;23.10;97.10
51175;DHT22;37240;50.104;20.010;2023-06-10T13:48:39;23.20;97.20
51175;DHT22;37240;50.104;20.010;2023-06-10T13:53:40;23.20;97.20
51175;DHT22;37240;50.104;20.010;2023-06-10T13:58:40;23.20;96.90
51175;DHT22;37240;50.104;20.010;2023-06-10T14:03:41;23.10;97.10
51175;DHT22;37240;50.104;20.010;2023-06-10T14:08:42;23.10;97.00
51175;DHT22;37240;50.104;20.010;2023-06-10T14:13:42;23.10;97.20
51175;DHT22;37240;50.104;20.010;2023-06-10T14:18:43;23.00;96.90
51175;DHT22;37240;50.104;20.010;2023-06-10T14:23:43;22.90;96.60
51175;DHT22;37240;50.104;20.010;2023-06-10T14:28:44;23.00;96.90
51175;DHT22;37240;50.104;20.010;2023-06-10T14:33:44;23.10;97.10
51175;DHT22;37240;50.104;20.010;2023-06-10T14:38:45;23.10;97.60
51175;DHT22;37240;50.104;20.010;2023-06-10T14:43:45;23.20;96.60
51175;DHT22;37240;50.104;20.010;2023-06-10T14:48:46;23.30;95.80
51175;DHT22;37240;50.104;20.010;2023-06-10T14:53:47;23.30;97.10
51175;DHT22;37240;50.104;20.010;2023-06-10T14:58:47;23.40;96.60
51175;DHT22;37240;50.104;20.010;2023-06-10T15:03:48;23.30;96.20
51175;DHT22;37240;50.104;20.010;2023-06-10T15:08:48;23.10;95.30
51175;DHT22;37240;50.104;20.010;2023-06-10T15:13:49;22.90;95.00
51175;DHT22;37240;50.104;20.010;2023-06-10T15:18:49;23.00;94.20
51175;DHT22;37240;50.104;20.010;2023-06-10T15:23:50;23.30;92.80
51175;DHT22;37240;50.104;20.010;2023-06-10T15:28:50;23.40;92.70
51175;DHT22;37240;50.104;20.010;2023-06-10T15:33:51;23.30;92.30
51175;DHT22;37240;50.104;20.010;2023-06-10T15:38:52;23.10;92.80
51175;DHT22;37240;50.104;20.010;2023-06-10T15:43:52;22.90;92.50
51175;DHT22;37240;50.104;20.010;2023-06-10T15:48:53;22.70;92.50
51175;DHT22;37240;50.104;20.010;2023-06-10T15:53:53;22.60;93.20
51175;DHT22;37240;50.104;20.010;2023-06-10T15:58:54;22.60;93.80
51175;DHT22;37240;50.104;20.010;2023-06-10T16:03:54;22.60;93.60
51175;DHT22;37240;50.104;20.010;2023-06-10T16:08:55;22.50;94.00
51175;DHT22;37240;50.104;20.010;2023-06-10T16:13:55;22.50;93.60
51175;DHT22;37240;50.104;20.010;2023-06-10T16:18:56;22.50;94.10
51175;DHT22;37240;50.104;20.010;2023-06-10T16:23:56;22.50;94.50
51175;DHT22;37240;50.104;20.010;2023-06-10T16:28:57;22.50;95.10
51175;DHT22;37240;50.104;20.010;2023-06-10T16:33:57;22.40;95.30
51175;DHT22;37240;50.104;20.010;2023-06-10T16:38:58;22.40;94.70
51175;DHT22;37240;50.104;20.010;2023-06-10T16:43:59;22.40;95.10
51175;DHT22;37240;50.104;20.010;2023-06-10T16:48:59;22.30;95.40
51175;DHT22;37240;50.104;20.010;2023-06-10T16:54:00;22.30;95.50
51175;DHT22;37240;50.104;20.010;2023-06-10T16:59:01;22.20;95.20
51175;DHT22;37240;50.104;20.010;2023-06-10T17:04:01;22.00;95.30
51175;DHT22;37240;50.104;20.010;2023-06-10T17:09:02;21.90;95.40
51175;DHT22;37240;50.104;20.010;2023-06-10T17:14:03;21.80;96.00
51175;DHT22;37240;50.104;20.010;2023-06-10T17:19:04;21.80;96.10
51175;DHT22;37240;50.104;20.010;2023-06-10T17:24:04;21.70;96.50
51175;DHT22;37240;50.104;20.010;2023-06-10T17:29:05;21.70;96.80
51175;DHT22;37240;50.104;20.010;2023-06-10T17:34:06;21.60;97.00
51175;DHT22;37240;50.104;20.010;2023-06-10T17:39:06;21.50;97.10
51175;DHT22;37240;50.104;20.010;2023-06-10T17:44:07;21.50;97.20
51175;DHT22;37240;50.104;20.010;2023-06-10T17:49:07;21.50;97.40
51175;DHT22;37240;50.104;20.010;2023-06-10T17:54:08;21.50;97.70
51175;DHT22;37240;50.104;20.010;2023-06-10T17:59:08;21.50;98.00
51175;DHT22;37240;50.104;20.010;2023-06-10T18:04:09;21.50;98.40
51175;DHT22;37240;50.104;20.010;2023-06-10T18:09:09;21.40;98.90
51175;DHT22;37240;50.104;20.010;2023-06-10T18:14:10;21.30;99.30
51175;DHT22;37240;50.104;20.010;2023-06-10T18:19:10;21.30;99.30
51175;DHT22;37240;50.104;20.010;2023-06-10T18:24:11;21.20;99.20
51175;DHT22;37240;50.104;20.010;2023-06-10T18:29:11;21.20;99.20
51175;DHT22;37240;50.104;20.010;2023-06-10T18:34:12;21.10;99.20
51175;DHT22;37240;50.104;20.010;2023-06-10T18:39:12;21.20;99.20
51175;DHT22;37240;50.104;20.010;2023-06-10T18:44:13;21.10;99.40
51175;DHT22;37240;50.104;20.010;2023-06-10T18:49:13;21.00;99.80
51175;DHT22;37240;50.104;20.010;2023-06-10T18:54:14;20.90;99.90
51175;DHT22;37240;50.104;20.010;2023-06-10T18:59:15;20.70;99.90
51175;DHT22;37240;50.104;20.010;2023-06-10T19:04:15;20.70;99.90
51175;DHT22;37240;50.104;20.010;2023-06-10T19:09:16;20.60;99.90
51175;DHT22;37240;50.104;20.010;2023-06-10T19:14:16;20.60;99.90
51175;DHT22;37240;50.104;20.010;2023-06-10T19:19:17;20.40;99.90
51175;DHT22;37240;50.104;20.010;2023-06-10T19:24:17;20.30;99.90
51175;DHT22;37240;50.104;20.010;2023-06-10T19:29:18;20.20;99.90
51175;DHT22;37240;50.104;20.010;2023-06-10T19:34:18;20.20;99.90
51175;DHT22;37240;50.104;20.010;2023-06-10T19:39:19;20.20;99.90
51175;DHT22;37240;50.104;20.010;2023-06-10T19:44:19;20.10;99.90
51175;DHT22;37240;50.104;20.010;2023-06-10T19:49:20;20.00;99.90
51175;DHT22;37240;50.104;20.010;2023-06-10T19:54:21;19.90;99.90
51175;DHT22;37240;50.104;20.010;2023-06-10T19:59:22;19.90;99.90
51175;DHT22;37240;50.104;20.010;2023-06-10T20:04:22;19.80;99.90
51175;DHT22;37240;50.104;20.010;2023-06-10T20:09:23;19.90;99.90
51175;DHT22;37240;50.104;20.010;2023-06-10T20:14:23;19.80;99.90
51175;DHT22;37240;50.104;20.010;2023-06-10T20:19:24;19.70;99.90
51175;DHT22;37240;50.104;20.010;2023-06-10T20:24:24;19.70;99.90
51175;DHT22;37240;50.104;20.010;2023-06-10T20:29:25;19.60;99.90
51175;DHT22;37240;50.104;20.010;2023-06-10T20:34:25;19.60;99.90
51175;DHT22;37240;50.104;20.010;2023-06-10T20:39:26;19.70;99.90
51175;DHT22;37240;50.104;20.010;2023-06-10T20:44:26;19.60;99.90
51175;DHT22;37240;50.104;20.010;2023-06-10T20:49:27;19.60;99.90
51175;DHT22;37240;50.104;20.010;2023-06-10T20:54:27;19.50;99.90
51175;DHT22;37240;50.104;20.010;2023-06-10T20:59:28;19.50;99.90
51175;DHT22;37240;50.104;20.010;2023-06-10T21:04:28;19.40;99.90
51175;DHT22;37240;50.104;20.010;2023-06-10T21:09:29;19.40;99.90
51175;DHT22;37240;50.104;20.010;2023-06-10T21:14:29;19.40;99.90
51175;DHT22;37240;50.104;20.010;2023-06-10T21:19:30;19.30;99.90
51175;DHT22;37240;50.104;20.010;2023-06-10T21:24:30;19.30;99.90
51175;DHT22;37240;50.104;20.010;2023-06-10T21:29:31;19.30;99.90
51175;DHT22;37240;50.104;20.010;2023-06-10T21:34:32;19.20;99.90
51175;DHT22;37240;50.104;20.010;2023-06-10T21:39:32;19.10;99.90
51175;DHT22;37240;50.104;20.010;2023-06-10T21:44:33;19.00;99.90
51175;DHT22;37240;50.104;20.010;2023-06-10T21:49:33;19.10;99.90
51175;DHT22;37240;50.104;20.010;2023-06-10T21:54:34;19.10;99.90
51175;DHT22;37240;50.104;20.010;2023-06-10T21:59:34;19.10;99.90
51175;DHT22;37240;50.104;20.010;2023-06-10T22:04:35;18.90;99.90
51175;DHT22;37240;50.104;20.010;2023-06-10T22:09:36;18.80;99.90
51175;DHT22;37240;50.104;20.010;2023-06-10T22:14:37;18.80;99.90
51175;DHT22;37240;50.104;20.010;2023-06-10T22:19:37;18.80;99.90
51175;DHT22;37240;50.104;20.010;2023-06-10T22:24:38;18.70;99.90
51175;DHT22;37240;50.104;20.010;2023-06-10T22:29:38;18.70;99.90
51175;DHT22;37240;50.104;20.010;2023-06-10T22:34:39;18.70;99.90
51175;DHT22;37240;50.104;20.010;2023-06-10T22:39:39;18.60;99.90
51175;DHT22;37240;50.104;20.010;2023-06-10T22:44:40;18.50;99.90
51175;DHT22;37240;50.104;20.010;2023-06-10T22:49:40;18.50;99.90
51175;DHT22;37240;50.104;20.010;2023-06-10T22:54:41;18.50;99.90
51175;DHT22;37240;50.104;20.010;2023-06-10T22:59:42;18.50;99.90
51175;DHT22;37240;50.104;20.010;2023-06-10T23:04:42;18.40;99.90
51175;DHT22;37240;50.104;20.010;2023-06-10T23:09:43;18.20;99.90
51175;DHT22;37240;50.104;20.010;2023-06-10T23:14:43;18.10;99.90
51175;DHT22;37240;50.104;20.010;2023-06-10T23:19:44;18.10;99.90
51175;DHT22;37240;50.104;20.010;2023-06-10T23:24:44;18.10;99.90
51175;DHT22;37240;50.104;20.010;2023-06-10T23:29:45;17.90;99.90
51175;DHT22;37240;50.104;20.010;2023-06-10T23:34:46;17.90;99.90
51175;DHT22;37240;50.104;20.010;2023-06-10T23:39:46;17.90;99.90
51175;DHT22;37240;50.104;20.010;2023-06-10T23:44:47;17.80;99.90
51175;DHT22;37240;50.104;20.010;2023-06-10T23:49:47;17.90;99.90
51175;DHT22;37240;50.104;20.010;2023-06-10T23:54:49;17.90;99.90
51175;DHT22;37240;50.104;20.010;2023-06-10T23:59:49;17.90;99.90
